createdAt,value
2019-03-15T00:02:59.960Z,96336.26
2019-03-15T00:05:34.708Z,96335.78
2019-03-15T00:08:09.304Z,96335.78
2019-03-15T00:10:44.290Z,96347.88
2019-03-15T00:13:18.915Z,96349.32
2019-03-15T00:15:52.073Z,96352.21
2019-03-15T00:18:26.623Z,96356.91
2019-03-15T00:21:01.319Z,96355.93
2019-03-15T00:23:36.303Z,96361.80
2019-03-15T00:26:11.128Z,96364.73
2019-03-15T00:28:47.784Z,96347.94
2019-03-15T00:31:21.235Z,96362.45
2019-03-15T00:33:55.652Z,96366.53
2019-03-15T00:36:30.285Z,96366.53
2019-03-15T00:39:05.300Z,96376.70
2019-03-15T00:41:39.953Z,96377.25
2019-03-15T00:44:13.292Z,96379.05
2019-03-15T00:46:47.895Z,96391.55
2019-03-15T00:49:21.615Z,96391.55
2019-03-15T00:51:59.278Z,96390.31
2019-03-15T00:54:34.127Z,96383.30
2019-03-15T00:57:08.703Z,96384.05
2019-03-15T00:59:43.293Z,96395.67
2019-03-15T01:02:17.960Z,96406.75
2019-03-15T01:04:52.603Z,96408.63
2019-03-15T01:07:27.334Z,96408.63
2019-03-15T01:10:01.895Z,96423.88
2019-03-15T01:12:36.417Z,96418.98
2019-03-15T01:15:11.378Z,96423.11
2019-03-15T01:17:46.294Z,96422.97
2019-03-15T01:20:20.906Z,96435.92
2019-03-15T01:25:31.957Z,96448.91
2019-03-15T01:28:06.667Z,96452.83
2019-03-15T01:30:41.285Z,96456.17
2019-03-15T01:33:16.284Z,96465.66
2019-03-15T01:35:50.871Z,96457.27
2019-03-15T01:38:24.279Z,96461.20
2019-03-15T01:41:00.228Z,96466.21
2019-03-15T01:43:36.397Z,96466.21
2019-03-15T01:46:10.961Z,96477.77
2019-03-15T01:48:45.651Z,96476.87
2019-03-15T01:51:20.275Z,96482.14
2019-03-15T01:53:55.265Z,96482.52
2019-03-15T01:56:29.760Z,96478.25
2019-03-15T01:59:03.111Z,96489.77
2019-03-15T02:01:36.071Z,96479.69
2019-03-15T02:04:09.288Z,96479.69
2019-03-15T02:06:43.911Z,96491.30
2019-03-15T02:09:18.691Z,96489.55
2019-03-15T02:11:52.287Z,96487.64
2019-03-15T02:14:27.643Z,96486.00
2019-03-15T02:17:01.101Z,96499.25
2019-03-15T02:19:35.491Z,96502.73
2019-03-15T02:22:10.290Z,96502.73
2019-03-15T02:24:44.700Z,96507.70
2019-03-15T02:27:19.355Z,96518.56
2019-03-15T02:29:54.281Z,96506.59
2019-03-15T02:32:28.737Z,96511.95
2019-03-15T02:35:03.361Z,96502.55
2019-03-15T02:37:38.288Z,96499.13
2019-03-15T02:40:12.974Z,96499.13
2019-03-15T02:42:48.363Z,96497.67
2019-03-15T02:45:22.951Z,96496.65
2019-03-15T02:47:57.669Z,96500.83
2019-03-15T02:50:32.267Z,96501.77
2019-03-15T02:53:06.954Z,96500.02
2019-03-15T02:55:42.662Z,96501.16
2019-03-15T02:58:17.359Z,96501.63
2019-03-15T03:00:52.288Z,96503.14
2019-03-15T03:03:27.289Z,96504.72
2019-03-15T03:06:02.404Z,96516.04
2019-03-15T03:08:37.278Z,96527.69
2019-03-15T03:11:11.982Z,96527.69
2019-03-15T03:13:47.654Z,96521.48
2019-03-15T03:16:22.286Z,96521.48
2019-03-15T03:18:57.192Z,96519.64
2019-03-15T03:21:32.287Z,96517.70
2019-03-15T03:24:07.295Z,96526.66
2019-03-15T03:26:42.344Z,96535.00
2019-03-15T03:29:17.291Z,96532.40
2019-03-15T03:31:52.291Z,96530.98
2019-03-15T03:34:26.947Z,96543.36
2019-03-15T03:37:01.970Z,96546.52
2019-03-15T03:39:37.112Z,96557.47
2019-03-15T03:42:11.778Z,96569.50
2019-03-15T03:44:46.638Z,96569.50
2019-03-15T03:49:12.762Z,96558.76
2019-03-15T03:51:47.275Z,96558.76
2019-03-15T03:54:22.309Z,96560.55
2019-03-15T03:56:56.952Z,96553.27
2019-03-15T03:59:31.877Z,96566.66
2019-03-15T04:02:09.941Z,96566.66
2019-03-15T04:04:44.735Z,96561.41
2019-03-15T04:07:19.478Z,96560.30
2019-03-15T04:09:54.328Z,96564.58
2019-03-15T04:12:28.940Z,96564.58
2019-03-15T04:15:03.686Z,96581.46
2019-03-15T04:17:37.276Z,96581.46
2019-03-15T04:20:11.855Z,96576.28
2019-03-15T04:22:46.682Z,96583.59
2019-03-15T04:25:21.387Z,96587.74
2019-03-15T04:27:56.278Z,96581.98
2019-03-15T04:30:31.276Z,96600.70
2019-03-15T04:33:06.284Z,96590.22
2019-03-15T04:35:41.266Z,96602.91
2019-03-15T04:38:16.242Z,96599.80
2019-03-15T04:40:50.742Z,96612.93
2019-03-15T04:43:25.289Z,96606.35
2019-03-15T04:46:00.135Z,96613.24
2019-03-15T04:48:34.689Z,96622.04
2019-03-15T04:51:09.519Z,96622.04
2019-03-15T04:53:44.286Z,96623.16
2019-03-15T04:56:18.951Z,96629.73
2019-03-15T04:58:53.704Z,96635.32
2019-03-15T05:01:28.278Z,96639.61
2019-03-15T05:04:03.292Z,96635.02
2019-03-15T05:06:38.441Z,96642.62
2019-03-15T05:09:13.363Z,96647.25
2019-03-15T05:11:48.275Z,96642.88
2019-03-15T05:14:22.758Z,96646.97
2019-03-15T05:16:57.293Z,96650.64
2019-03-15T05:19:31.944Z,96634.61
2019-03-15T05:22:06.797Z,96646.32
2019-03-15T05:24:42.551Z,96646.32
2019-03-15T05:27:17.279Z,96643.31
2019-03-15T05:29:51.946Z,96643.06
2019-03-15T05:32:26.286Z,96641.73
2019-03-15T05:35:00.950Z,96643.62
2019-03-15T05:37:34.096Z,96648.91
2019-03-15T05:40:09.287Z,96645.55
2019-03-15T05:42:43.860Z,96651.49
2019-03-15T05:45:18.319Z,96655.66
2019-03-15T05:47:53.174Z,96673.67
2019-03-15T05:50:28.120Z,96669.39
2019-03-15T05:53:02.710Z,96669.92
2019-03-15T05:55:37.280Z,96670.84
2019-03-15T05:58:12.954Z,96670.84
2019-03-15T06:00:47.769Z,96670.54
2019-03-15T06:03:23.297Z,96679.36
2019-03-15T06:05:58.103Z,96682.59
2019-03-15T06:08:33.659Z,96676.98
2019-03-15T06:11:08.288Z,96676.98
2019-03-15T06:13:42.793Z,96678.99
2019-03-15T06:16:16.273Z,96679.77
2019-03-15T06:18:50.727Z,96675.40
2019-03-15T06:21:25.308Z,96674.48
2019-03-15T06:24:00.128Z,96694.09
2019-03-15T06:26:34.666Z,96684.27
2019-03-15T06:29:09.283Z,96684.27
2019-03-15T06:31:43.860Z,96695.47
2019-03-15T06:34:17.278Z,96697.75
2019-03-15T06:36:51.684Z,96692.83
2019-03-15T06:39:26.273Z,96692.83
2019-03-15T06:42:01.281Z,96696.01
2019-03-15T06:44:37.575Z,96703.09
2019-03-15T06:47:12.298Z,96687.66
2019-03-15T06:49:47.325Z,96683.25
2019-03-15T06:52:22.269Z,96678.58
2019-03-15T06:54:57.709Z,96682.35
2019-03-15T06:57:32.395Z,96671.17
2019-03-15T07:00:07.750Z,96679.00
2019-03-15T07:02:41.255Z,96671.20
2019-03-15T07:05:15.688Z,96658.55
2019-03-15T07:07:50.317Z,96658.55
2019-03-15T07:10:25.108Z,96669.65
2019-03-15T07:12:59.898Z,96676.27
2019-03-15T07:15:33.248Z,96667.02
2019-03-15T07:18:08.042Z,96651.70
2019-03-15T07:20:42.791Z,96647.78
2019-03-15T07:25:39.936Z,96640.69
2019-03-15T07:28:14.290Z,96640.69
2019-03-15T07:30:49.075Z,96640.09
2019-03-15T07:33:23.725Z,96647.31
2019-03-15T07:35:56.864Z,96647.31
2019-03-15T07:38:31.133Z,96641.27
2019-03-15T07:41:05.924Z,96665.73
2019-03-15T07:43:39.266Z,96669.47
2019-03-15T07:46:13.692Z,96668.64
2019-03-15T07:48:48.275Z,96668.64
2019-03-15T07:51:22.701Z,96671.67
2019-03-15T07:53:57.272Z,96670.02
2019-03-15T07:56:31.827Z,96664.89
2019-03-15T07:59:06.074Z,96673.05
2019-03-15T08:01:39.270Z,96666.84
2019-03-15T08:04:16.971Z,96655.56
2019-03-15T08:06:49.905Z,96655.56
2019-03-15T08:09:22.674Z,96667.14
2019-03-15T08:11:57.258Z,96670.31
2019-03-15T08:14:31.869Z,96667.94
2019-03-15T08:17:05.330Z,96668.13
2019-03-15T08:19:39.656Z,96662.26
2019-03-15T08:22:15.266Z,96677.69
2019-03-15T08:24:51.821Z,96670.86
2019-03-15T08:27:26.920Z,96659.60
2019-03-15T08:30:01.271Z,96659.60
2019-03-15T08:32:35.940Z,96672.52
2019-03-15T08:35:11.631Z,96671.35
2019-03-15T08:37:46.342Z,96657.47
2019-03-15T08:40:21.095Z,96660.53
2019-03-15T08:42:55.698Z,96666.66
2019-03-15T08:45:29.263Z,96666.66
2019-03-15T08:48:04.732Z,96674.82
2019-03-15T08:50:38.041Z,96674.82
2019-03-15T08:53:11.092Z,96672.48
2019-03-15T08:55:45.645Z,96675.91
2019-03-15T08:58:22.167Z,96675.91
2019-03-15T09:00:56.623Z,96674.94
2019-03-15T09:03:34.161Z,96661.50
2019-03-15T09:06:08.108Z,96666.34
2019-03-15T09:08:42.683Z,96671.26
2019-03-15T09:11:17.270Z,96670.31
2019-03-15T09:13:52.105Z,96670.31
2019-03-15T09:16:26.714Z,96672.19
2019-03-15T09:19:01.635Z,96664.88
2019-03-15T09:21:36.269Z,96652.03
2019-03-15T09:24:11.269Z,96652.03
2019-03-15T09:26:45.706Z,96665.89
2019-03-15T09:29:19.263Z,96644.19
2019-03-15T09:32:04.880Z,96669.23
2019-03-15T09:34:30.350Z,96669.23
2019-03-15T09:37:05.286Z,96674.68
2019-03-15T09:39:40.136Z,96662.14
2019-03-15T09:42:14.738Z,96661.38
2019-03-15T09:44:49.553Z,96661.38
2019-03-15T09:47:24.274Z,96661.73
2019-03-15T09:49:58.886Z,96647.95
2019-03-15T09:52:32.265Z,96649.25
2019-03-15T09:55:07.123Z,96662.34
2019-03-15T09:57:42.056Z,96662.34
2019-03-15T10:00:17.861Z,96659.27
2019-03-15T10:02:51.292Z,96659.27
2019-03-15T10:05:26.265Z,96654.86
2019-03-15T10:08:00.930Z,96654.86
2019-03-15T10:10:34.268Z,96654.52
2019-03-15T10:13:08.656Z,96646.25
2019-03-15T10:15:43.309Z,96646.25
2019-03-15T10:18:17.945Z,96646.70
2019-03-15T10:20:51.105Z,96646.70
2019-03-15T10:23:25.714Z,96658.52
2019-03-15T10:26:00.254Z,96663.02
2019-03-15T10:28:35.072Z,96651.94
2019-03-15T10:31:09.663Z,96636.39
2019-03-15T10:33:50.252Z,96636.39
2019-03-15T10:36:20.669Z,96631.70
2019-03-15T10:38:55.287Z,96627.30
2019-03-15T10:41:30.273Z,96634.91
2019-03-15T10:44:04.893Z,96645.37
2019-03-15T10:46:40.530Z,96644.85
2019-03-15T10:49:15.281Z,96649.78
2019-03-15T10:51:49.766Z,96649.78
2019-03-15T10:54:24.302Z,96637.33
2019-03-15T10:56:59.245Z,96652.34
2019-03-15T10:59:33.706Z,96652.57
2019-03-15T11:02:09.316Z,96642.42
2019-03-15T11:04:43.987Z,96650.16
2019-03-15T11:07:17.334Z,96666.55
2019-03-15T11:09:51.686Z,96666.55
2019-03-15T11:12:26.307Z,96648.22
2019-03-15T11:15:00.890Z,96644.50
2019-03-15T11:17:35.327Z,96653.88
2019-03-15T11:20:10.702Z,96647.50
2019-03-15T11:22:45.271Z,96635.75
2019-03-15T11:25:19.875Z,96646.27
2019-03-15T11:27:53.078Z,96645.48
2019-03-15T11:30:27.287Z,96634.30
2019-03-15T11:33:02.262Z,96629.80
2019-03-15T11:35:37.265Z,96627.70
2019-03-15T11:38:12.258Z,96627.84
2019-03-15T11:40:47.271Z,96613.84
2019-03-15T11:43:22.140Z,96614.71
2019-03-15T11:45:56.723Z,96599.30
2019-03-15T11:48:31.322Z,96599.30
2019-03-15T11:51:05.708Z,96601.67
2019-03-15T11:53:40.269Z,96589.50
2019-03-15T11:56:26.462Z,96589.50
2019-03-15T11:58:52.273Z,96591.73
2019-03-15T12:01:27.240Z,96594.11
2019-03-15T12:04:01.764Z,96578.21
2019-03-15T12:06:36.278Z,96579.88
2019-03-15T12:09:11.628Z,96574.44
2019-03-15T12:11:46.345Z,96567.63
2019-03-15T12:14:20.931Z,96570.59
2019-03-15T12:16:55.337Z,96561.44
2019-03-15T12:19:29.949Z,96557.17
2019-03-15T12:22:06.625Z,96562.12
2019-03-15T12:24:39.282Z,96567.38
2019-03-15T12:27:13.691Z,96561.02
2019-03-15T12:29:49.270Z,96546.38
2019-03-15T12:32:24.020Z,96546.38
2019-03-15T12:34:58.935Z,96521.99
2019-03-15T12:37:33.316Z,96521.99
2019-03-15T12:40:09.113Z,96510.81
2019-03-15T12:42:43.950Z,96512.39
2019-03-15T12:45:18.347Z,96517.62
2019-03-15T12:47:52.944Z,96512.39
2019-03-15T12:50:27.642Z,96511.55
2019-03-15T12:53:02.272Z,96507.59
2019-03-15T12:55:36.774Z,96501.13
2019-03-15T12:58:11.275Z,96500.60
2019-03-15T13:00:45.952Z,96492.61
2019-03-15T13:03:20.581Z,96494.52
2019-03-15T13:05:55.114Z,96483.83
2019-03-15T13:08:29.684Z,96479.48
2019-03-15T13:11:04.284Z,96479.48
2019-03-15T13:13:40.681Z,96471.98
2019-03-15T13:16:15.287Z,96453.42
2019-03-15T13:18:49.735Z,96454.75
2019-03-15T13:21:24.271Z,96454.03
2019-03-15T13:23:58.915Z,96455.84
2019-03-15T13:26:33.327Z,96444.73
2019-03-15T13:29:08.114Z,96444.73
2019-03-15T13:31:42.730Z,96441.80
2019-03-15T13:34:17.283Z,96430.00
2019-03-15T13:36:51.707Z,96430.00
2019-03-15T13:39:26.305Z,96419.74
2019-03-15T13:42:01.286Z,96423.39
2019-03-15T13:44:36.274Z,96415.23
2019-03-15T13:47:10.952Z,96408.92
2019-03-15T13:49:43.871Z,96404.05
2019-03-15T13:52:18.299Z,96400.27
2019-03-15T13:54:52.944Z,96403.50
2019-03-15T13:57:27.642Z,96398.54
2019-03-15T14:00:02.326Z,96400.78
2019-03-15T14:02:38.251Z,96411.52
2019-03-15T14:05:13.276Z,96393.50
2019-03-15T14:07:47.955Z,96386.64
2019-03-15T14:10:22.587Z,96386.64
2019-03-15T14:12:57.294Z,96392.25
2019-03-15T14:15:32.285Z,96402.09
2019-03-15T14:18:06.781Z,96402.13
2019-03-15T14:20:41.233Z,96368.45
2019-03-15T14:23:15.777Z,96370.61
2019-03-15T14:25:50.275Z,96355.63
2019-03-15T14:28:25.134Z,96355.63
2019-03-15T14:30:59.873Z,96361.85
2019-03-15T14:33:33.270Z,96361.85
2019-03-15T14:36:08.133Z,96376.09
2019-03-15T14:38:42.941Z,96376.64
2019-03-15T14:41:18.131Z,96362.95
2019-03-15T14:43:52.801Z,96353.69
2019-03-15T14:46:26.077Z,96353.69
2019-03-15T14:48:59.277Z,96362.95
2019-03-15T14:51:33.699Z,96352.02
2019-03-15T14:54:09.294Z,96352.02
2019-03-15T14:56:44.019Z,96345.77
2019-03-15T14:59:18.323Z,96357.59
2019-03-15T15:01:52.712Z,96357.59
2019-03-15T15:04:27.288Z,96362.45
2019-03-15T15:07:04.279Z,96353.53
2019-03-15T15:09:38.761Z,96355.34
2019-03-15T15:12:13.115Z,96362.54
2019-03-15T15:14:53.002Z,96357.56
2019-03-15T15:17:30.600Z,96356.66
2019-03-15T15:20:05.274Z,96356.66
2019-03-15T15:22:39.951Z,96354.97
2019-03-15T15:25:14.655Z,96354.20
2019-03-15T15:27:49.116Z,96325.72
2019-03-15T15:30:23.693Z,96341.79
2019-03-15T15:32:58.260Z,96343.06
2019-03-15T15:35:32.899Z,96353.02
2019-03-15T15:38:07.409Z,96343.80
2019-03-15T15:40:41.958Z,96343.93
2019-03-15T15:43:16.279Z,96336.66
2019-03-15T15:45:50.705Z,96341.96
2019-03-15T15:48:25.268Z,96346.46
2019-03-15T15:50:59.904Z,96347.95
2019-03-15T15:53:34.364Z,96350.35
2019-03-15T15:56:09.889Z,96344.63
2019-03-15T15:58:43.030Z,96334.20
2019-03-15T16:01:17.274Z,96338.83
2019-03-15T16:03:51.941Z,96332.33
2019-03-15T16:06:25.110Z,96332.34
2019-03-15T16:08:59.335Z,96334.48
2019-03-15T16:11:33.946Z,96334.48
2019-03-15T16:14:08.353Z,96309.73
2019-03-15T16:16:42.876Z,96289.77
2019-03-15T16:19:16.005Z,96302.33
2019-03-15T16:21:50.285Z,96292.92
2019-03-15T16:24:24.775Z,96292.31
2019-03-15T16:26:57.680Z,96285.27
2019-03-15T16:29:31.949Z,96282.28
2019-03-15T16:32:06.282Z,96286.92
2019-03-15T16:34:40.754Z,96283.69
2019-03-15T16:37:15.283Z,96276.52
2019-03-15T16:39:49.666Z,96273.26
2019-03-15T16:42:24.250Z,96252.14
2019-03-15T16:44:58.675Z,96253.02
2019-03-15T16:47:33.044Z,96239.69
2019-03-15T16:50:09.666Z,96252.12
2019-03-15T16:52:44.164Z,96252.12
2019-03-15T16:55:18.676Z,96248.48
2019-03-15T16:57:53.363Z,96248.48
2019-03-15T17:00:27.945Z,96234.89
2019-03-15T17:03:02.337Z,96215.13
2019-03-15T17:05:37.261Z,96215.13
2019-03-15T17:08:11.967Z,96223.25
2019-03-15T17:10:46.921Z,96224.09
2019-03-15T17:13:21.469Z,96224.09
2019-03-15T17:15:56.414Z,96231.38
2019-03-15T17:18:32.284Z,96227.22
2019-03-15T17:21:06.691Z,96227.22
2019-03-15T17:23:41.262Z,96221.56
2019-03-15T17:26:15.680Z,96221.56
2019-03-15T17:28:58.587Z,96218.30
2019-03-15T17:31:26.243Z,96227.70
2019-03-15T17:34:00.717Z,96242.67
2019-03-15T17:36:35.276Z,96218.27
2019-03-15T17:39:10.713Z,96213.34
2019-03-15T17:41:43.853Z,96213.34
2019-03-15T17:44:18.283Z,96210.82
2019-03-15T17:46:52.941Z,96208.05
2019-03-15T17:49:27.265Z,96212.20
2019-03-15T17:52:01.697Z,96224.10
2019-03-15T17:54:36.272Z,96220.33
2019-03-15T17:57:10.663Z,96206.99
2019-03-15T18:00:08.328Z,96196.14
2019-03-15T18:02:42.872Z,96196.14
2019-03-15T18:05:17.323Z,96197.02
2019-03-15T18:07:53.744Z,96182.80
2019-03-15T18:10:26.694Z,96180.38
2019-03-15T18:13:01.093Z,96178.27
2019-03-15T18:15:35.664Z,96182.98
2019-03-15T18:18:10.270Z,96182.98
2019-03-15T18:20:44.701Z,96180.00
2019-03-15T18:23:19.274Z,96187.42
2019-03-15T18:25:53.888Z,96180.66
2019-03-15T18:28:28.109Z,96177.60
2019-03-15T18:31:02.614Z,96177.83
2019-03-15T18:33:37.263Z,96177.83
2019-03-15T18:36:11.737Z,96171.19
2019-03-15T18:38:46.233Z,96194.24
2019-03-15T18:41:20.672Z,96194.24
2019-03-15T18:43:55.127Z,96203.27
2019-03-15T18:46:29.580Z,96220.00
2019-03-15T18:49:04.254Z,96220.00
2019-03-15T18:51:38.701Z,96224.78
2019-03-15T18:54:17.664Z,96218.14
2019-03-15T18:56:49.250Z,96253.77
2019-03-15T18:59:23.725Z,96246.59
2019-03-15T19:02:01.294Z,96283.67
2019-03-15T19:04:36.347Z,96259.95
2019-03-15T19:07:11.274Z,96283.50
2019-03-15T19:09:46.256Z,96288.08
2019-03-15T19:12:20.776Z,96298.13
2019-03-15T19:14:55.691Z,96296.13
2019-03-15T19:17:30.465Z,96312.45
2019-03-15T19:20:05.303Z,96333.31
2019-03-15T19:22:40.079Z,96343.73
2019-03-15T19:25:15.278Z,96303.73
2019-03-15T19:27:50.056Z,96338.03
2019-03-15T19:30:24.630Z,96324.96
2019-03-15T19:32:59.277Z,96343.39
2019-03-15T19:35:33.298Z,96357.44
2019-03-15T19:38:08.144Z,96358.94
2019-03-15T19:40:42.766Z,96371.95
2019-03-15T19:43:16.033Z,96371.95
2019-03-15T19:46:06.100Z,96353.48
2019-03-15T19:48:42.284Z,96353.48
2019-03-15T19:51:17.104Z,96385.23
2019-03-15T19:53:51.725Z,96369.02
2019-03-15T19:56:24.849Z,96375.16
2019-03-15T19:58:59.352Z,96368.39
2019-03-15T20:01:34.125Z,96370.64
2019-03-15T20:04:08.703Z,96354.45
2019-03-15T20:06:41.802Z,96383.31
2019-03-15T20:09:15.057Z,96383.67
2019-03-15T20:11:49.277Z,96367.70
2019-03-15T20:14:23.928Z,96391.25
2019-03-15T20:16:58.274Z,96377.66
2019-03-15T20:19:32.664Z,96400.85
2019-03-15T20:22:09.368Z,96401.98
2019-03-15T20:24:44.479Z,96418.51
2019-03-15T20:27:20.328Z,96430.30
2019-03-15T20:29:54.942Z,96432.30
2019-03-15T20:32:29.286Z,96435.41
2019-03-15T20:35:03.768Z,96433.52
2019-03-15T20:37:37.019Z,96435.03
2019-03-15T20:40:11.626Z,96437.52
2019-03-15T20:42:46.120Z,96437.95
2019-03-15T20:45:20.788Z,96437.95
2019-03-15T20:47:56.256Z,96455.09
2019-03-15T20:50:31.130Z,96451.47
2019-03-15T20:53:09.740Z,96450.09
2019-03-15T20:55:42.067Z,96457.60
2019-03-15T20:58:16.776Z,96464.70
2019-03-15T21:00:51.095Z,96464.70
2019-03-15T21:03:25.651Z,96470.08
2019-03-15T21:06:00.283Z,96470.08
2019-03-15T21:08:34.820Z,96473.41
2019-03-15T21:11:07.865Z,96466.27
2019-03-15T21:13:42.125Z,96476.98
2019-03-15T21:16:18.243Z,96484.15
2019-03-15T21:18:52.949Z,96492.12
2019-03-15T21:21:28.699Z,96502.50
2019-03-15T21:24:03.027Z,96502.50
2019-03-15T21:26:37.335Z,96506.08
2019-03-15T21:29:12.014Z,96509.73
2019-03-15T21:31:46.729Z,96503.02
2019-03-15T21:34:19.961Z,96503.02
2019-03-15T21:36:54.283Z,96518.86
2019-03-15T21:39:28.786Z,96503.41
2019-03-15T21:42:03.960Z,96507.02
2019-03-15T21:44:38.341Z,96507.02
2019-03-15T21:47:12.961Z,96525.52
2019-03-15T21:49:47.129Z,96540.84
2019-03-15T21:52:21.676Z,96543.45
2019-03-15T21:54:57.142Z,96543.45
2019-03-15T21:57:31.896Z,96541.97
2019-03-15T22:00:05.300Z,96555.87
2019-03-15T22:02:39.897Z,96551.58
2019-03-15T22:05:14.310Z,96540.78
2019-03-15T22:07:48.759Z,96543.45
2019-03-15T22:10:23.287Z,96539.55
2019-03-15T22:12:57.963Z,96548.63
2019-03-15T22:15:32.672Z,96548.97
2019-03-15T22:18:07.138Z,96555.14
2019-03-15T22:20:41.796Z,96542.03
2019-03-15T22:23:16.281Z,96570.80
2019-03-15T22:25:51.291Z,96569.84
2019-03-15T22:28:26.906Z,96569.84
2019-03-15T22:30:59.925Z,96574.20
2019-03-15T22:33:34.288Z,96576.97
2019-03-15T22:36:08.926Z,96553.91
2019-03-15T22:38:43.282Z,96581.84
2019-03-15T22:41:17.759Z,96583.22
2019-03-15T22:43:50.825Z,96590.88
2019-03-15T22:46:25.283Z,96596.76
2019-03-15T22:48:59.960Z,96596.76
2019-03-15T22:51:34.333Z,96598.75
2019-03-15T22:54:08.797Z,96612.69
2019-03-15T22:56:41.868Z,96597.60
2019-03-15T22:59:16.295Z,96617.92
2019-03-15T23:01:51.119Z,96622.77
2019-03-15T23:04:25.677Z,96615.80
2019-03-15T23:07:00.142Z,96615.80
2019-03-15T23:09:34.962Z,96619.27
2019-03-15T23:12:08.125Z,96652.08
2019-03-15T23:14:42.721Z,96658.06
2019-03-15T23:17:17.299Z,96658.06
2019-03-15T23:19:51.907Z,96666.70
2019-03-15T23:22:25.108Z,96659.73
2019-03-15T23:24:59.799Z,96662.70
2019-03-15T23:27:33.049Z,96655.75
2019-03-15T23:30:06.290Z,96660.55
2019-03-15T23:34:34.882Z,96632.10
2019-03-15T23:37:07.872Z,96660.41
2019-03-15T23:39:42.315Z,96669.80
2019-03-15T23:42:16.952Z,96666.21
2019-03-15T23:44:49.877Z,96680.13
2019-03-15T23:47:24.269Z,96690.73
2019-03-15T23:49:58.792Z,96690.73
2019-03-15T23:52:32.045Z,96701.46
2019-03-15T23:55:05.008Z,96710.23
2019-03-15T23:57:37.869Z,96722.70
